Time;durP1;ratioP1;P1;durP2;ratioP2;P2;SDS_P1;SDS_P2;PMS_P1;PMS_P2;Temp;Humidity;BMP_temperature;BMP_pressure;BME280_temperature;BME280_humidity;BME280_pressure;Samples;Min_cycle;Max_cycle;Signal;HPM_P1;HPM_P2
2022/01/23 00:03:22;;;;;;;8.45;3.85;;;6.40;99.90;;;;;;10306025;28;20090;-61
2022/01/23 00:08:25;;;;;;;9.10;4.95;;;6.30;99.90;;;;;;10299567;28;20050;-61
2022/01/23 00:13:33;;;;;;;10.82;4.38;;;6.30;99.90;;;;;;10305432;28;20694;-62
2022/01/23 00:18:35;;;;;;;11.23;4.93;;;6.30;99.90;;;;;;10311246;28;20058;-61
2022/01/23 00:30:20;;;;;;;10.60;4.07;;;6.30;99.90;;;;;;10304114;28;20620;-61
2022/01/23 00:34:19;;;;;;;11.93;4.45;;;6.20;99.90;;;;;;10306490;28;20092;-61
2022/01/23 00:39:21;;;;;;;14.50;4.97;;;6.20;99.90;;;;;;10305059;28;20057;-61
2022/01/23 00:44:22;;;;;;;10.00;4.35;;;6.30;99.90;;;;;;10302037;28;20139;-61
2022/01/23 00:49:25;;;;;;;13.15;5.03;;;6.20;99.90;;;;;;10305036;28;20081;-61
2022/01/23 00:54:26;;;;;;;11.80;5.32;;;6.20;99.90;;;;;;10303986;28;20125;-61
2022/01/23 00:59:28;;;;;;;14.60;5.50;;;6.20;99.90;;;;;;10301035;28;20100;-62
2022/01/23 01:04:30;;;;;;;9.98;4.65;;;6.30;99.90;;;;;;10301239;28;20047;-62
2022/01/23 01:09:32;;;;;;;15.18;6.32;;;6.30;99.90;;;;;;10297089;28;20055;-62
2022/01/23 01:14:55;;;;;;;15.25;5.50;;;6.30;99.90;;;;;;10301606;28;20047;-62
2022/01/23 01:36:02;;;;;;;15.35;5.70;;;6.20;99.90;;;;;;10296255;28;20065;-62
2022/01/23 01:41:04;;;;;;;12.43;5.53;;;6.20;99.90;;;;;;10299432;28;20536;-63
2022/01/23 01:46:09;;;;;;;13.65;5.68;;;6.20;99.90;;;;;;10305280;28;20081;-62
2022/01/23 01:51:15;;;;;;;13.20;5.95;;;6.20;99.90;;;;;;10296177;28;20060;-62
2022/01/23 01:56:17;;;;;;;14.77;5.63;;;6.20;99.90;;;;;;10303942;28;20081;-62
2022/01/23 02:22:43;;;;;;;21.80;8.35;;;6.10;99.90;;;;;;10297388;28;20375;-62
2022/01/23 02:59:51;;;;;;;27.00;10.05;;;6.10;99.90;;;;;;10303822;28;20054;-63
2022/01/23 03:04:59;;;;;;;24.15;9.98;;;6.10;99.90;;;;;;10307219;28;20452;-63
2022/01/23 03:15:12;;;;;;;27.02;10.05;;;6.10;99.90;;;;;;10303152;28;20045;-64
2022/01/23 03:31:42;;;;;;;25.65;9.35;;;6.10;99.90;;;;;;10309508;28;20042;-63
2022/01/23 03:36:13;;;;;;;24.40;8.70;;;6.00;99.90;;;;;;10310664;28;20082;-63
2022/01/23 03:41:15;;;;;;;24.35;8.95;;;6.00;99.90;;;;;;10306561;28;20117;-62
2022/01/23 03:46:23;;;;;;;25.30;8.57;;;6.00;99.90;;;;;;10303615;28;20054;-63
2022/01/23 03:51:25;;;;;;;28.50;9.93;;;6.00;99.90;;;;;;10307925;28;20109;-63
2022/01/23 03:56:30;;;;;;;26.45;9.07;;;6.00;99.90;;;;;;10304369;28;20112;-62
2022/01/23 04:01:32;;;;;;;24.40;9.60;;;6.00;99.90;;;;;;10304453;28;20452;-62
2022/01/23 04:06:34;;;;;;;22.10;8.50;;;6.00;99.90;;;;;;10308953;28;20106;-62
2022/01/23 04:11:35;;;;;;;25.48;9.00;;;6.00;99.90;;;;;;10305617;28;20058;-62
2022/01/23 04:17:04;;;;;;;20.00;7.60;;;6.00;99.90;;;;;;10298218;28;20153;-62
2022/01/23 04:33:11;;;;;;;22.52;8.05;;;6.00;99.90;;;;;;10300840;28;20050;-62
2022/01/23 04:49:07;;;;;;;17.88;7.65;;;6.00;99.90;;;;;;10306110;28;20043;-62
2022/01/23 04:59:35;;;;;;;18.10;7.10;;;6.00;99.90;;;;;;10304599;28;20140;-63
2022/01/23 05:04:37;;;;;;;;;;;6.00;99.90;;;;;;10301131;28;20074;-62
2022/01/23 05:09:39;;;;;;;12.70;5.05;;;6.00;99.90;;;;;;10300237;28;19966;-62
2022/01/23 05:14:44;;;;;;;15.10;6.53;;;6.00;99.90;;;;;;10302873;28;20151;-62
2022/01/23 05:19:46;;;;;;;17.77;5.88;;;6.00;99.90;;;;;;10301311;28;20112;-62
2022/01/23 05:24:58;;;;;;;18.92;6.90;;;6.00;99.90;;;;;;10303107;28;20051;-62
2022/01/23 05:30:00;;;;;;;17.85;7.13;;;6.00;99.90;;;;;;10303288;28;20588;-62
2022/01/23 05:35:04;;;;;;;18.95;7.20;;;6.00;99.90;;;;;;10299870;28;20081;-63
2022/01/23 05:40:10;;;;;;;20.05;7.07;;;6.00;99.90;;;;;;10300434;28;20445;-62
2022/01/23 05:45:12;;;;;;;19.20;6.35;;;5.90;99.90;;;;;;10293186;28;20501;-62
2022/01/23 05:50:14;;;;;;;19.65;7.60;;;5.90;99.90;;;;;;10303456;28;20051;-62
2022/01/23 05:55:16;;;;;;;17.67;7.22;;;5.90;99.90;;;;;;10299465;28;20144;-62
2022/01/23 06:00:17;;;;;;;21.77;8.13;;;5.90;99.90;;;;;;10299597;28;20445;-62
2022/01/23 06:05:19;;;;;;;25.25;8.50;;;5.90;99.90;;;;;;10298685;28;20046;-62
2022/01/23 06:10:24;;;;;;;22.98;8.63;;;5.90;99.90;;;;;;10299329;28;20419;-62
2022/01/23 06:15:26;;;;;;;21.83;8.35;;;5.80;99.90;;;;;;10297163;28;20406;-62
2022/01/23 06:20:27;;;;;;;23.33;9.27;;;5.90;99.90;;;;;;10295772;28;20137;-62
2022/01/23 06:25:32;;;;;;;22.45;8.82;;;5.80;99.90;;;;;;10301646;28;20109;-62
2022/01/23 06:30:34;;;;;;;27.08;9.32;;;5.90;99.90;;;;;;10298791;28;20046;-62
2022/01/23 06:35:37;;;;;;;24.30;8.95;;;5.90;99.90;;;;;;10297074;28;20058;-62
2022/01/23 06:40:39;;;;;;;28.42;8.93;;;5.90;99.90;;;;;;10300977;28;20112;-63
2022/01/23 06:45:41;;;;;;;22.20;8.05;;;5.90;99.90;;;;;;10299739;28;20112;-63
2022/01/23 06:50:42;;;;;;;23.02;10.32;;;5.90;99.90;;;;;;10298374;28;20078;-62
2022/01/23 06:55:44;;;;;;;29.98;10.38;;;5.90;99.90;;;;;;10278784;28;20564;-63
2022/01/23 07:00:46;;;;;;;25.52;10.00;;;5.90;99.90;;;;;;10300311;28;20081;-62
2022/01/23 07:05:48;;;;;;;22.23;8.02;;;5.90;99.90;;;;;;10297829;28;20401;-63
2022/01/23 07:10:49;;;;;;;23.45;8.68;;;5.90;99.90;;;;;;10297090;28;20101;-65
2022/01/23 07:15:51;;;;;;;24.38;8.93;;;5.90;99.90;;;;;;10297686;28;20496;-65
2022/01/23 07:20:53;;;;;;;27.38;9.95;;;6.00;99.90;;;;;;10301936;28;20138;-66
2022/01/23 07:25:55;;;;;;;28.42;9.73;;;6.00;99.90;;;;;;10296159;28;20144;-65
2022/01/23 07:31:00;;;;;;;25.75;9.70;;;6.00;99.90;;;;;;10296784;28;20042;-65
2022/01/23 07:36:03;;;;;;;27.70;10.27;;;6.00;99.90;;;;;;10297340;28;20119;-66
2022/01/23 07:41:05;;;;;;;25.17;9.65;;;6.00;99.90;;;;;;10305175;28;20042;-65
2022/01/23 07:46:06;;;;;;;26.02;9.13;;;6.00;99.90;;;;;;10305251;28;20046;-65
2022/01/23 07:51:08;;;;;;;30.80;11.32;;;6.00;99.90;;;;;;10304626;28;20158;-65
2022/01/23 07:56:10;;;;;;;23.20;9.57;;;6.10;99.90;;;;;;10301977;28;20047;-66
2022/01/23 08:01:12;;;;;;;25.85;10.02;;;6.10;99.90;;;;;;10302144;28;20121;-65
2022/01/23 08:06:13;;;;;;;27.95;11.48;;;6.10;99.90;;;;;;10307730;28;20082;-64
2022/01/23 08:11:15;;;;;;;34.95;12.15;;;6.10;99.90;;;;;;10302312;28;20559;-64
2022/01/23 08:16:17;;;;;;;31.42;11.32;;;6.10;99.90;;;;;;10307594;28;20101;-65
2022/01/23 08:21:19;;;;;;;30.15;13.43;;;6.20;99.90;;;;;;10299717;28;20143;-65
2022/01/23 08:26:21;;;;;;;28.05;11.27;;;6.20;99.90;;;;;;10303877;28;20042;-65
2022/01/23 08:31:23;;;;;;;33.13;11.23;;;6.30;99.90;;;;;;10299840;28;20120;-65
2022/01/23 08:36:26;;;;;;;29.48;10.30;;;6.30;99.90;;;;;;10303220;28;20056;-65
2022/01/23 08:46:48;;;;;;;25.17;9.50;;;6.40;99.90;;;;;;10314899;28;20173;-65
2022/01/23 08:51:52;;;;;;;24.67;9.88;;;6.50;99.90;;;;;;10284713;28;20051;-65
2022/01/23 08:56:54;;;;;;;26.02;9.80;;;6.50;99.90;;;;;;10298830;28;20544;-65
2022/01/23 09:01:56;;;;;;;24.60;9.00;;;6.60;99.90;;;;;;10298989;28;20197;-65
2022/01/23 09:06:57;;;;;;;27.52;9.27;;;6.70;99.90;;;;;;10302472;28;20046;-65
2022/01/23 09:17:07;;;;;;;17.85;6.47;;;6.90;99.90;;;;;;10306174;28;20114;-65
2022/01/23 09:22:09;;;;;;;23.10;7.90;;;7.10;99.90;;;;;;10302509;28;20047;-65
2022/01/23 09:27:18;;;;;;;11.88;4.57;;;7.10;99.90;;;;;;10301749;28;20046;-65
2022/01/23 09:32:23;;;;;;;16.45;6.38;;;7.20;99.90;;;;;;10300198;28;20073;-66
2022/01/23 09:37:25;;;;;;;17.10;6.20;;;7.30;99.90;;;;;;10301385;28;20070;-66
2022/01/23 09:42:34;;;;;;;16.23;6.35;;;7.40;99.90;;;;;;10295504;28;20128;-66
2022/01/23 09:47:37;;;;;;;16.50;5.85;;;7.40;99.90;;;;;;10301356;28;20050;-66
2022/01/23 09:52:40;;;;;;;19.83;6.40;;;7.50;99.90;;;;;;10303392;28;20062;-66
2022/01/23 09:57:45;;;;;;;14.20;4.85;;;7.60;99.90;;;;;;10300814;28;20052;-66
2022/01/23 10:02:46;;;;;;;18.48;6.03;;;7.60;97.40;;;;;;10299224;28;20098;-66
2022/01/23 10:07:49;;;;;;;11.55;4.47;;;7.60;99.20;;;;;;10300131;28;20552;-66
2022/01/23 10:12:55;;;;;;;9.73;3.17;;;7.70;96.80;;;;;;10301079;28;20104;-66
2022/01/23 10:17:57;;;;;;;5.90;2.13;;;7.80;94.20;;;;;;10298927;28;20050;-66
2022/01/23 10:22:59;;;;;;;4.30;1.60;;;8.00;92.80;;;;;;10297581;28;20112;-66
2022/01/23 10:28:17;;;;;;;4.95;2.10;;;7.90;91.70;;;;;;10299598;28;20054;-65
2022/01/23 10:33:25;;;;;;;4.90;1.80;;;8.10;92.40;;;;;;10303735;28;20050;-66
2022/01/23 10:38:30;;;;;;;7.22;2.90;;;8.30;92.10;;;;;;10296509;28;20064;-65
2022/01/23 10:48:54;;;;;;;5.70;2.47;;;8.70;90.40;;;;;;10296178;28;20120;-65
2022/01/23 10:54:09;;;;;;;8.48;3.75;;;8.90;90.00;;;;;;10299233;28;20521;-66
2022/01/23 10:59:12;;;;;;;9.00;3.38;;;9.00;88.20;;;;;;10299869;28;20074;-66
2022/01/23 11:04:14;;;;;;;10.10;3.70;;;9.00;89.80;;;;;;10262030;28;20490;-65
2022/01/23 11:09:15;;;;;;;7.80;3.30;;;9.20;88.40;;;;;;10299555;28;20129;-66
2022/01/23 11:19:43;;;;;;;9.63;2.55;;;9.30;87.70;;;;;;10306475;28;20050;-66
2022/01/23 11:24:47;;;;;;;9.35;2.55;;;9.50;86.00;;;;;;10309409;28;20125;-65
2022/01/23 11:30:00;;;;;;;5.60;2.47;;;9.60;84.20;;;;;;10299813;28;20485;-64
2022/01/23 11:35:09;;;;;;;8.65;3.17;;;9.60;83.60;;;;;;10302365;28;20140;-64
2022/01/23 11:40:29;;;;;;;6.68;2.47;;;9.70;83.10;;;;;;10306212;28;20569;-64
2022/01/23 11:55:54;;;;;;;7.20;2.55;;;9.70;80.80;;;;;;10302776;28;20054;-65
2022/01/23 12:01:19;;;;;;;11.20;2.70;;;9.90;80.60;;;;;;10313408;28;20054;-64
2022/01/23 12:06:21;;;;;;;6.13;2.33;;;9.40;80.60;;;;;;10288836;28;20129;-64
2022/01/23 12:11:41;;;;;;;7.13;2.63;;;9.40;81.10;;;;;;10303480;28;20058;-65
2022/01/23 12:17:00;;;;;;;7.28;2.15;;;9.40;81.00;;;;;;10302198;28;20046;-64
2022/01/23 12:22:21;;;;;;;5.03;1.70;;;9.50;79.20;;;;;;10299945;28;20129;-64
2022/01/23 12:27:27;;;;;;;4.40;1.35;;;9.50;75.50;;;;;;10304860;28;20130;-64
2022/01/23 12:32:34;;;;;;;2.97;1.13;;;9.30;76.50;;;;;;10307473;28;20409;-64
2022/01/23 12:38:00;;;;;;;3.20;0.98;;;9.50;75.20;;;;;;10299742;28;20639;-64
2022/01/23 12:43:17;;;;;;;2.83;0.80;;;9.40;74.70;;;;;;10301166;28;20139;-63
2022/01/23 12:48:24;;;;;;;3.40;0.80;;;9.50;75.10;;;;;;10304530;28;20567;-63
2022/01/23 12:53:48;;;;;;;2.83;0.80;;;9.20;75.00;;;;;;10310127;28;20043;-63
2022/01/23 12:59:09;;;;;;;2.80;0.68;;;9.30;74.20;;;;;;10303407;28;20046;-63
2022/01/23 13:04:12;;;;;;;7.00;1.80;;;9.20;74.10;;;;;;10305318;28;20042;-64
2022/01/23 13:09:44;;;;;;;4.53;0.80;;;9.20;75.10;;;;;;10303541;28;20057;-63
2022/01/23 13:14:59;;;;;;;6.32;1.00;;;9.10;75.40;;;;;;10303314;28;20108;-63
2022/01/23 13:31:08;;;;;;;2.88;0.88;;;8.90;77.90;;;;;;10294259;28;20046;-64
2022/01/23 13:36:11;;;;;;;4.47;1.50;;;8.80;77.50;;;;;;10298408;28;20061;-64
2022/01/23 13:41:23;;;;;;;4.97;0.77;;;8.80;76.90;;;;;;10304618;28;20049;-64
2022/01/23 13:52:00;;;;;;;1.15;0.43;;;8.70;76.70;;;;;;10300676;28;20050;-65
2022/01/23 14:02:28;;;;;;;2.38;0.55;;;8.50;77.50;;;;;;10299456;28;20148;-63
2022/01/23 14:07:31;;;;;;;6.70;0.50;;;8.40;78.90;;;;;;10297802;28;20126;-63
2022/01/23 14:12:32;;;;;;;1.67;0.50;;;8.30;79.10;;;;;;10302092;28;20153;-63
2022/01/23 14:18:04;;;;;;;2.60;0.90;;;8.20;78.70;;;;;;10298560;28;20074;-64
2022/01/23 14:23:18;;;;;;;1.90;0.70;;;8.20;78.20;;;;;;10295363;28;20050;-65
2022/01/23 14:28:28;;;;;;;1.02;0.45;;;8.20;78.70;;;;;;10199991;28;76505;-62
2022/01/23 14:33:35;;;;;;;5.53;0.55;;;8.10;80.20;;;;;;10198009;28;20051;-63
2022/01/23 14:39:11;;;;;;;1.00;0.43;;;8.00;81.90;;;;;;10226404;28;20145;-64
2022/01/23 14:44:20;;;;;;;1.90;0.50;;;8.00;83.30;;;;;;10238103;28;20097;-65
2022/01/23 14:49:27;;;;;;;4.97;1.70;;;7.90;84.20;;;;;;10239823;28;20051;-64
2022/01/23 14:54:32;;;;;;;1.20;0.57;;;7.90;85.00;;;;;;10235487;28;20151;-63
2022/01/23 14:59:36;;;;;;;1.48;0.77;;;7.90;85.90;;;;;;10234305;28;20055;-64
2022/01/23 15:04:46;;;;;;;2.45;0.50;;;7.80;85.50;;;;;;10207378;28;20518;-63
2022/01/23 15:09:50;;;;;;;3.72;0.50;;;7.80;86.40;;;;;;10223386;28;20075;-64
2022/01/23 15:14:52;;;;;;;2.55;0.75;;;7.80;86.90;;;;;;10241619;28;20487;-64
2022/01/23 15:19:54;;;;;;;1.55;0.70;;;7.80;86.80;;;;;;10220927;28;20074;-65
2022/01/23 15:24:56;;;;;;;3.05;0.40;;;7.70;88.00;;;;;;10236898;28;20975;-64
2022/01/23 15:29:58;;;;;;;1.50;0.20;;;7.60;87.60;;;;;;10255037;28;20490;-64
2022/01/23 15:35:00;;;;;;;1.13;0.35;;;7.60;86.20;;;;;;10237722;28;20114;-64
2022/01/23 15:40:03;;;;;;;0.77;0.30;;;7.50;85.60;;;;;;10236257;28;20469;-64
2022/01/23 15:45:06;;;;;;;2.15;0.30;;;7.40;86.20;;;;;;10239626;28;20055;-63
2022/01/23 15:50:10;;;;;;;0.80;0.30;;;7.40;87.10;;;;;;10236551;28;20050;-63
2022/01/23 15:55:16;;;;;;;1.00;0.40;;;7.30;89.00;;;;;;10238819;28;21590;-64
2022/01/23 16:00:18;;;;;;;0.60;0.20;;;7.30;90.30;;;;;;10231056;28;20054;-63
2022/01/23 16:05:20;;;;;;;2.58;0.50;;;7.20;90.70;;;;;;10244539;28;20039;-63
2022/01/23 16:10:22;;;;;;;2.92;0.85;;;7.20;91.40;;;;;;10247024;28;20109;-65
2022/01/23 16:15:24;;;;;;;7.30;0.82;;;7.20;92.10;;;;;;10253964;28;20133;-65
2022/01/23 16:20:25;;;;;;;2.13;0.90;;;7.20;92.50;;;;;;10245873;28;20512;-64
2022/01/23 16:25:27;;;;;;;2.35;0.70;;;7.20;93.60;;;;;;10245400;28;20102;-63
2022/01/23 16:30:44;;;;;;;4.68;0.80;;;7.10;92.60;;;;;;10241695;28;20117;-63
2022/01/23 16:35:47;;;;;;;2.15;0.57;;;7.00;90.50;;;;;;10242152;28;20470;-62
2022/01/23 16:40:54;;;;;;;4.50;1.20;;;7.00;89.20;;;;;;10238575;28;20050;-63
2022/01/23 16:45:57;;;;;;;5.05;1.40;;;7.00;89.10;;;;;;10256510;28;20499;-62
2022/01/23 16:51:00;;;;;;;10.55;2.88;;;6.90;89.10;;;;;;10247274;28;20455;-62
2022/01/23 16:56:02;;;;;;;0.80;0.30;;;6.90;89.90;;;;;;10257527;28;20145;-62
2022/01/23 17:01:06;;;;;;;3.60;0.50;;;6.80;91.20;;;;;;10244416;28;20138;-63
2022/01/23 17:06:08;;;;;;;1.60;0.47;;;6.80;91.60;;;;;;10252963;28;20051;-62
2022/01/23 17:11:10;;;;;;;1.33;0.52;;;6.80;92.40;;;;;;10237681;28;20111;-63
2022/01/23 17:16:13;;;;;;;1.80;0.50;;;6.70;93.00;;;;;;10238708;28;20101;-63
2022/01/23 17:21:15;;;;;;;2.85;0.50;;;6.70;95.20;;;;;;10230802;28;20066;-63
2022/01/23 17:26:17;;;;;;;1.73;0.60;;;6.70;97.10;;;;;;10232136;28;20129;-62
2022/01/23 17:31:19;;;;;;;2.08;0.70;;;6.60;99.70;;;;;;10237568;28;20051;-65
2022/01/23 17:36:21;;;;;;;1.77;0.60;;;6.60;99.90;;;;;;10247176;28;20043;-62
2022/01/23 17:41:27;;;;;;;1.42;0.60;;;6.60;99.90;;;;;;10226851;28;20073;-62
2022/01/23 17:46:33;;;;;;;1.27;0.68;;;6.60;99.90;;;;;;10232652;28;20058;-62
2022/01/23 17:51:36;;;;;;;2.97;0.68;;;6.50;99.90;;;;;;10244565;28;20598;-62
2022/01/23 17:56:38;;;;;;;3.03;0.60;;;6.50;99.90;;;;;;10238150;28;20144;-62
2022/01/23 18:01:40;;;;;;;8.50;3.33;;;6.50;98.20;;;;;;10244199;28;20134;-63
2022/01/23 18:06:45;;;;;;;7.85;3.63;;;6.50;99.00;;;;;;10235284;28;20062;-63
2022/01/23 18:11:47;;;;;;;5.18;1.75;;;6.50;99.30;;;;;;10245840;28;20111;-63
2022/01/23 18:16:48;;;;;;;3.25;1.25;;;6.50;99.90;;;;;;10260928;28;20114;-62
2022/01/23 18:21:50;;;;;;;5.32;1.92;;;6.50;99.90;;;;;;10247758;28;20038;-62
2022/01/23 18:26:52;;;;;;;3.97;1.80;;;6.40;99.90;;;;;;10242100;28;20113;-62
2022/01/23 18:31:54;;;;;;;3.42;1.27;;;6.40;99.90;;;;;;10234134;28;21007;-62
2022/01/23 18:36:56;;;;;;;2.38;1.42;;;6.40;99.90;;;;;;10236434;28;20077;-62
2022/01/23 18:41:58;;;;;;;3.80;2.25;;;6.40;99.90;;;;;;10232905;28;20047;-62
2022/01/23 18:47:00;;;;;;;1.60;0.90;;;6.40;99.90;;;;;;10225708;28;20071;-62
2022/01/23 18:52:03;;;;;;;3.25;1.65;;;6.40;99.90;;;;;;10250943;28;20121;-62
2022/01/23 18:57:19;;;;;;;2.78;1.25;;;6.30;99.90;;;;;;10234647;28;20411;-62
2022/01/23 19:02:26;;;;;;;3.30;0.70;;;6.30;98.10;;;;;;10235211;28;20054;-61
2022/01/23 19:07:39;;;;;;;1.70;0.90;;;6.30;97.40;;;;;;10242181;28;20078;-63
2022/01/23 19:12:42;;;;;;;2.85;1.10;;;6.30;98.20;;;;;;10234432;28;20700;-62
2022/01/23 19:17:43;;;;;;;3.25;1.33;;;6.30;98.10;;;;;;10237693;28;20118;-63
2022/01/23 19:22:45;;;;;;;4.53;1.63;;;6.30;98.00;;;;;;10229710;28;20161;-62
2022/01/23 19:27:51;;;;;;;3.13;0.80;;;6.20;98.70;;;;;;10248318;28;20565;-62
2022/01/23 19:32:54;;;;;;;2.10;0.80;;;6.20;96.20;;;;;;10239612;28;20129;-62
2022/01/23 19:37:57;;;;;;;1.63;0.43;;;6.20;95.10;;;;;;10261706;28;20082;-63
2022/01/23 19:43:20;;;;;;;2.00;0.50;;;6.20;94.20;;;;;;10251264;28;20063;-63
2022/01/23 19:49:35;;;;;;;1.30;0.65;;;6.10;95.30;;;;;;10253047;28;20129;-62
2022/01/23 19:53:54;;;;;;;1.23;0.60;;;6.10;96.30;;;;;;10244585;28;20156;-63
2022/01/23 19:58:56;;;;;;;0.95;0.47;;;6.10;97.20;;;;;;10255169;28;20165;-62
2022/01/23 20:03:57;;;;;;;2.40;0.75;;;6.10;96.50;;;;;;10230275;28;20089;-63
2022/01/23 20:09:06;;;;;;;1.52;0.50;;;6.10;97.50;;;;;;10234320;28;20062;-62
2022/01/23 20:14:09;;;;;;;1.15;0.63;;;6.00;98.80;;;;;;10242421;28;20471;-63
2022/01/23 20:19:12;;;;;;;1.80;0.85;;;6.10;99.00;;;;;;10253971;28;20050;-63
2022/01/23 20:24:14;;;;;;;4.93;0.80;;;6.10;99.90;;;;;;10234134;28;20058;-62
2022/01/23 20:29:26;;;;;;;1.58;0.60;;;6.10;99.90;;;;;;10257704;28;20064;-62
2022/01/23 20:34:30;;;;;;;2.25;0.80;;;6.00;99.90;;;;;;10254003;28;20051;-63
2022/01/23 20:39:36;;;;;;;3.63;0.88;;;6.10;99.90;;;;;;10247342;28;20100;-62
2022/01/23 20:44:39;;;;;;;1.90;0.82;;;6.00;99.90;;;;;;10237644;28;20086;-62
2022/01/23 20:49:41;;;;;;;3.05;0.70;;;6.10;99.90;;;;;;10257243;28;20059;-63
2022/01/23 20:54:42;;;;;;;3.13;1.17;;;6.00;99.90;;;;;;10251164;28;20150;-62
2022/01/23 20:59:44;;;;;;;4.57;1.80;;;6.10;99.90;;;;;;10231667;28;20059;-63
2022/01/23 21:04:46;;;;;;;2.40;0.88;;;6.10;99.90;;;;;;10243804;28;20558;-63
2022/01/23 21:09:47;;;;;;;5.28;0.80;;;6.00;99.90;;;;;;10237790;28;20301;-63
2022/01/23 21:41:10;;;;;;;5.97;1.25;;;6.00;99.90;;;;;;10242891;28;20624;-62
2022/01/23 21:46:12;;;;;;;2.15;1.08;;;6.00;99.90;;;;;;10239482;28;20070;-62
2022/01/23 21:51:14;;;;;;;2.00;0.88;;;6.00;99.90;;;;;;10251380;28;20513;-62
2022/01/23 21:56:16;;;;;;;1.90;0.80;;;6.00;99.90;;;;;;10249767;28;22956;-63
2022/01/23 22:01:17;;;;;;;1.38;0.82;;;6.00;99.90;;;;;;10250095;28;20047;-62
2022/01/23 22:06:20;;;;;;;1.40;0.75;;;6.00;99.90;;;;;;10232496;28;20062;-63
2022/01/23 22:11:30;;;;;;;2.53;0.80;;;6.00;99.90;;;;;;10251211;28;20112;-62
2022/01/23 22:16:33;;;;;;;2.55;0.70;;;6.00;99.90;;;;;;10248491;28;20059;-63
2022/01/23 22:21:52;;;;;;;3.35;0.82;;;6.00;99.90;;;;;;10240826;28;20323;-63
2022/01/23 22:26:54;;;;;;;2.33;0.80;;;6.00;99.90;;;;;;10239407;28;20557;-62
2022/01/23 22:31:56;;;;;;;2.33;0.93;;;5.90;99.90;;;;;;10238567;28;20058;-62
2022/01/23 22:36:58;;;;;;;1.30;0.50;;;5.90;99.90;;;;;;10238740;28;20137;-61
2022/01/23 22:42:00;;;;;;;1.45;0.60;;;5.90;99.90;;;;;;10235042;28;20569;-62
2022/01/23 22:47:01;;;;;;;2.10;1.00;;;5.90;99.90;;;;;;10226522;28;20055;-62
2022/01/23 22:52:04;;;;;;;1.98;0.70;;;5.90;99.90;;;;;;10232219;28;20055;-62
2022/01/23 22:57:05;;;;;;;1.45;0.70;;;5.90;99.90;;;;;;10220050;28;20048;-62
2022/01/23 23:02:07;;;;;;;1.73;0.63;;;5.90;99.90;;;;;;10235633;28;20042;-62
2022/01/23 23:07:09;;;;;;;0.85;0.50;;;5.90;99.90;;;;;;10237739;28;20101;-62
2022/01/23 23:12:11;;;;;;;3.92;0.52;;;5.90;99.90;;;;;;10238199;28;20085;-62
2022/01/23 23:17:15;;;;;;;3.30;1.17;;;5.90;99.90;;;;;;10247136;28;20055;-62
2022/01/23 23:22:16;;;;;;;3.85;1.42;;;5.90;99.90;;;;;;10241653;28;20137;-62
2022/01/23 23:27:18;;;;;;;1.38;0.70;;;5.90;99.90;;;;;;10246727;28;20078;-62
2022/01/23 23:32:20;;;;;;;3.83;0.80;;;5.90;99.90;;;;;;10249217;28;20565;-62
2022/01/23 23:37:22;;;;;;;1.70;0.90;;;5.80;99.90;;;;;;10246019;28;20055;-62
2022/01/23 23:42:36;;;;;;;1.42;0.60;;;5.90;99.90;;;;;;10238911;28;20160;-62
2022/01/23 23:47:37;;;;;;;0.80;0.45;;;5.80;99.90;;;;;;10254176;28;20914;-62
2022/01/23 23:52:46;;;;;;;2.30;0.70;;;5.80;99.90;;;;;;10250644;28;20047;-62
2022/01/23 23:57:50;;;;;;;0.63;0.47;;;5.80;99.90;;;;;;10237917;28;20153;-63
